Time;durP1;ratioP1;P1;durP2;ratioP2;P2;SDS_P1;SDS_P2;PMS_P1;PMS_P2;Temp;Humidity;BMP_temperature;BMP_pressure;BME280_temperature;BME280_humidity;BME280_pressure;Samples;Min_cycle;Max_cycle;Signal;HPM_P1;HPM_P2
2022/02/14 00:00:29;;;;;;;;;4.25;3.50;;;;;13.49;56.89;99333.91;5037093;28;45682;-79
2022/02/14 00:06:16;;;;;;;;;4.00;4.00;;;;;13.47;57.03;99325.34;5055731;28;45771;-79
2022/02/14 00:08:44;;;;;;;;;4.75;4.75;;;;;13.47;56.87;99325.34;5058058;28;45828;-78
2022/02/14 00:11:11;;;;;;;;;5.50;3.50;;;;;13.43;57.38;99304.63;5057861;28;45677;-79
2022/02/14 00:13:36;;;;;;;;;4.00;4.00;;;;;13.47;56.97;99320.06;5058025;28;45776;-79
2022/02/14 00:16:04;;;;;;;;;3.75;3.50;;;;;13.40;57.14;99294.38;5057535;28;46322;-78
2022/02/14 00:21:51;;;;;;;;;5.75;5.00;;;;;13.39;57.46;99282.22;5057624;28;45759;-78
2022/02/14 00:24:16;;;;;;;;;4.00;3.25;;;;;13.42;57.09;99284.53;5058049;28;45513;-79
2022/02/14 00:26:43;;;;;;;;;3.50;3.00;;;;;13.40;57.25;99278.59;5057454;28;45600;-79
2022/02/14 00:29:09;;;;;;;;;2.75;2.75;;;;;13.38;57.50;99296.38;5057391;28;46022;-79
2022/02/14 00:31:35;;;;;;;;;3.75;3.00;;;;;13.41;57.41;99277.63;5057677;28;45471;-79
2022/02/14 00:34:00;;;;;;;;;4.50;3.50;;;;;13.43;57.36;99295.91;5056635;28;45585;-77
2022/02/14 00:36:26;;;;;;;;;5.00;3.75;;;;;13.42;57.69;99289.81;5056141;28;46443;-77
2022/02/14 00:38:52;;;;;;;;;4.00;3.25;;;;;13.39;57.70;99281.38;5057167;28;46144;-76
2022/02/14 00:41:17;;;;;;;;;3.50;3.50;;;;;13.43;57.83;99286.19;5057027;28;45719;-78
2022/02/14 00:43:43;;;;;;;;;5.00;4.00;;;;;13.44;57.74;99295.72;5057430;28;45655;-77
2022/02/14 00:46:08;;;;;;;;;6.25;4.00;;;;;13.42;57.36;99281.09;5057398;28;46463;-78
2022/02/14 00:51:55;;;;;;;;;4.00;4.00;;;;;13.43;57.83;99256.44;5057386;28;45668;-79
2022/02/14 00:54:20;;;;;;;;;4.75;3.75;;;;;13.41;57.72;99258.38;5058668;28;45766;-79
2022/02/14 00:56:46;;;;;;;;;5.50;3.00;;;;;13.46;57.97;99258.72;5059011;28;46365;-78
2022/02/14 00:59:11;;;;;;;;;3.00;3.00;;;;;13.41;57.66;99256.59;5057990;28;46898;-79
2022/02/14 01:01:36;;;;;;;;;5.00;4.00;;;;;13.48;57.88;99261.22;5057375;28;45634;-78
2022/02/14 01:07:23;;;;;;;;;3.25;3.00;;;;;13.48;57.63;99253.31;5054400;28;45691;-79
2022/02/14 01:09:49;;;;;;;;;5.50;4.00;;;;;13.47;57.55;99264.81;5056847;28;45563;-78
2022/02/14 01:12:15;;;;;;;;;4.25;3.25;;;;;13.43;57.69;99249.38;5056188;28;45822;-78
2022/02/14 01:14:41;;;;;;;;;4.00;4.00;;;;;13.48;57.57;99250.69;5057056;28;45676;-77
2022/02/14 01:17:07;;;;;;;;;3.75;3.00;;;;;13.47;57.52;99260.38;5056305;28;45613;-79
2022/02/14 01:19:33;;;;;;;;;3.50;3.00;;;;;13.42;57.55;99239.00;5056444;28;46052;-80
2022/02/14 01:21:58;;;;;;;;;4.75;3.50;;;;;13.47;57.83;99246.41;5056757;28;46116;-80
2022/02/14 01:24:23;;;;;;;;;4.00;4.00;;;;;13.49;57.88;99247.06;5057138;28;45775;-81
2022/02/14 01:26:49;;;;;;;;;4.00;4.00;;;;;13.44;57.99;99245.72;5056479;28;46325;-81
2022/02/14 01:29:14;;;;;;;;;4.50;4.00;;;;;13.42;58.31;99229.28;5056215;28;46329;-79
2022/02/14 01:31:40;;;;;;;;;3.00;3.00;;;;;13.50;58.01;99244.25;5056642;28;45531;-78
2022/02/14 01:37:27;;;;;;;;;6.00;4.75;;;;;13.52;58.38;99221.25;5056177;28;45620;-79
2022/02/14 01:39:52;;;;;;;;;3.00;3.00;;;;;13.53;58.61;99217.63;5056460;28;46156;-79
2022/02/14 01:42:18;;;;;;;;;3.00;3.00;;;;;13.53;58.19;99212.38;5056699;28;45603;-80
2022/02/14 01:44:46;;;;;;;;;3.75;3.75;;;;;13.55;58.49;99207.75;5057774;28;45570;-81
2022/02/14 01:47:22;;;;;;;;;5.75;4.75;;;;;13.55;58.51;99199.06;5056960;28;45647;-82
2022/02/14 01:49:48;;;;;;;;;5.00;4.25;;;;;13.56;58.14;99200.69;5061647;28;45821;-79
2022/02/14 01:52:15;;;;;;;;;4.00;3.75;;;;;13.56;57.96;99219.94;5068197;28;45477;-79
2022/02/14 01:54:45;;;;;;;;;4.25;3.75;;;;;13.55;58.26;99196.44;5081646;28;45019;-79
2022/02/14 01:57:12;;;;;;;;;4.00;4.00;;;;;13.53;58.44;99211.56;5082129;28;45846;-79
2022/02/14 01:59:39;;;;;;;;;4.00;4.00;;;;;13.46;58.43;99206.09;5078271;27;45514;-80
2022/02/14 02:02:07;;;;;;;;;4.00;4.00;;;;;13.53;58.53;99207.13;5073001;28;45702;-80
2022/02/14 02:04:34;;;;;;;;;4.25;3.50;;;;;13.50;59.05;99203.97;5079094;28;45098;-80
2022/02/14 02:06:59;;;;;;;;;3.75;3.00;;;;;13.49;58.54;99181.28;5068854;28;45541;-79
2022/02/14 02:09:25;;;;;;;;;4.00;4.00;;;;;13.48;59.09;99196.25;5061856;28;45692;-81
2022/02/14 02:14:37;;;;;;;;;3.00;3.00;;;;;13.51;59.15;99201.19;5068893;28;45564;-79
2022/02/14 02:17:03;;;;;;;;;5.50;4.00;;;;;13.49;58.99;99205.81;5060665;28;46940;-80
2022/02/14 02:22:51;;;;;;;;;3.25;3.25;;;;;13.42;59.55;99191.63;5058618;28;45763;-80
2022/02/14 02:25:18;;;;;;;;;5.00;4.50;;;;;13.48;59.81;99185.72;5057174;28;45521;-80
2022/02/14 02:27:45;;;;;;;;;4.25;4.25;;;;;13.43;59.78;99188.84;5056358;28;46915;-81
2022/02/14 02:30:18;;;;;;;;;3.00;3.00;;;;;13.43;59.99;99165.19;5039764;28;45665;-80
2022/02/14 02:32:44;;;;;;;;;4.75;4.50;;;;;13.52;60.01;99180.97;5059495;28;45608;-78
2022/02/14 02:35:11;;;;;;;;;3.00;3.00;;;;;13.41;59.64;99167.13;5061863;28;45529;-78
2022/02/14 02:37:38;;;;;;;;;4.25;3.00;;;;;13.52;60.26;99180.97;5065228;28;45648;-79
2022/02/14 02:40:05;;;;;;;;;3.00;3.00;;;;;13.50;60.41;99181.13;5062404;28;45981;-78
2022/02/14 02:42:30;;;;;;;;;4.00;3.50;;;;;13.51;60.20;99171.41;5062004;28;45658;-77
2022/02/14 02:44:56;;;;;;;;;3.75;3.00;;;;;13.34;60.05;99162.66;5077711;28;45901;-77
2022/02/14 02:47:23;;;;;;;;;5.00;4.00;;;;;13.30;60.48;99148.22;5059893;28;45483;-75
2022/02/14 02:49:49;;;;;;;;;4.00;4.00;;;;;13.46;60.79;99171.91;5058913;28;46056;-78
2022/02/14 02:52:17;;;;;;;;;5.00;5.00;;;;;13.48;60.63;99172.56;5057352;28;45466;-79
2022/02/14 02:54:43;;;;;;;;;4.75;3.75;;;;;13.43;60.36;99172.25;5057348;28;45621;-80
2022/02/14 02:57:08;;;;;;;;;4.75;3.50;;;;;13.40;60.75;99170.75;5056928;28;45643;-80
2022/02/14 02:59:34;;;;;;;;;7.00;4.25;;;;;13.46;61.30;99182.44;5057332;28;45499;-78
2022/02/14 03:02:05;;;;;;;;;3.00;3.00;;;;;13.45;60.80;99188.66;5040934;28;45705;-80
2022/02/14 03:07:52;;;;;;;;;5.25;4.25;;;;;13.42;61.13;99174.03;5057528;28;45662;-77
2022/02/14 03:10:17;;;;;;;;;4.25;3.25;;;;;13.42;61.35;99186.38;5058816;28;45404;-76
2022/02/14 03:12:43;;;;;;;;;2.00;2.00;;;;;13.36;61.20;99181.75;5039477;28;45761;-79
2022/02/14 03:15:08;;;;;;;;;2.75;2.50;;;;;13.41;61.79;99182.09;5056738;28;45476;-79
2022/02/14 03:17:34;;;;;;;;;3.00;2.50;;;;;13.37;61.63;99186.88;5055662;28;47473;-78
2022/02/14 03:19:59;;;;;;;;;8.00;4.00;;;;;13.38;62.03;99179.81;5055440;28;46558;-80
2022/02/14 03:22:24;;;;;;;;;4.00;4.00;;;;;13.35;62.01;99175.66;5037153;28;45620;-78
2022/02/14 03:24:50;;;;;;;;;2.75;2.00;;;;;13.36;62.01;99187.03;5053979;28;45963;-78
2022/02/14 03:27:15;;;;;;;;;4.00;3.75;;;;;13.34;62.14;99194.25;5055326;28;46177;-78
2022/02/14 03:29:41;;;;;;;;;3.00;3.00;;;;;13.27;62.19;99180.09;5036683;28;47147;-80
2022/02/14 03:32:06;;;;;;;;;4.50;4.00;;;;;13.27;62.30;99191.44;5055273;28;45631;-77
2022/02/14 03:37:56;;;;;;;;;4.25;2.25;;;;;13.27;62.78;99217.75;5055456;28;46140;-79
2022/02/14 03:40:21;;;;;;;;;3.00;3.00;;;;;13.25;63.03;99200.47;5055022;28;47037;-79
2022/02/14 03:42:47;;;;;;;;;3.50;3.00;;;;;13.21;62.94;99220.19;5055697;28;45507;-77
2022/02/14 03:45:12;;;;;;;;;2.00;2.00;;;;;13.18;62.87;99226.59;5055091;28;45649;-80
2022/02/14 03:47:37;;;;;;;;;2.00;2.00;;;;;13.15;63.11;99216.41;5055027;28;46369;-79
2022/02/14 03:50:03;;;;;;;;;3.00;2.00;;;;;12.97;63.03;99202.47;5054883;28;46101;-80
2022/02/14 03:52:29;;;;;;;;;3.00;2.25;;;;;12.99;63.04;99208.41;5054791;28;45685;-80
2022/02/14 03:54:54;;;;;;;;;1.75;1.25;;;;;12.86;63.06;99198.34;5055142;28;45605;-81
2022/02/14 03:57:20;;;;;;;;;2.00;1.00;;;;;13.06;63.27;99250.69;5054085;28;46353;-80
2022/02/14 03:59:45;;;;;;;;;2.00;2.00;;;;;12.92;63.18;99216.09;5054383;28;46891;-78
2022/02/14 04:02:11;;;;;;;;;2.00;1.00;;;;;13.00;65.08;99296.84;5054495;28;45590;-80
2022/02/14 04:07:58;;;;;;;;;1.50;0.00;;;;;12.57;68.82;99327.44;5053373;28;45735;-78
2022/02/14 04:10:25;;;;;;;;;0.00;0.00;;;;;12.33;69.23;99322.00;5054529;28;46090;-77
2022/02/14 04:12:52;;;;;;;;;0.00;0.00;;;;;12.04;69.27;99319.59;5054690;28;45668;-77
2022/02/14 04:15:18;;;;;;;;;0.00;0.00;;;;;11.88;69.00;99357.97;5055184;28;45518;-78
2022/02/14 04:17:44;;;;;;;;;0.00;0.00;;;;;11.63;70.68;99334.09;5055463;28;45653;-79
2022/02/14 04:20:09;;;;;;;;;0.00;0.00;;;;;11.51;68.85;99343.13;5054202;28;46308;-79
2022/02/14 04:22:37;;;;;;;;;0.75;0.00;;;;;11.36;69.64;99345.41;5053308;28;45535;-77
2022/02/14 04:25:03;;;;;;;;;0.00;0.00;;;;;11.24;68.30;99345.72;5054049;28;45852;-80
2022/02/14 04:27:29;;;;;;;;;0.00;0.00;;;;;11.14;68.43;99335.28;5054322;28;45668;-78
2022/02/14 04:29:54;;;;;;;;;0.00;0.00;;;;;11.02;69.50;99336.41;5054026;28;47031;-79
2022/02/14 04:32:20;;;;;;;;;0.00;0.00;;;;;11.03;69.63;99352.97;5054082;28;45536;-79
2022/02/14 04:38:07;;;;;;;;;0.00;0.00;;;;;10.89;69.99;99357.72;5054171;28;46103;-79
2022/02/14 04:40:37;;;;;;;;;0.00;0.00;;;;;10.84;69.52;99365.19;5053908;28;45672;-79
2022/02/14 04:43:04;;;;;;;;;0.00;0.00;;;;;10.76;69.44;99362.41;5054153;28;45562;-79
2022/02/14 04:45:29;;;;;;;;;0.00;0.00;;;;;10.71;69.53;99359.41;5053978;28;45542;-80
2022/02/14 04:47:56;;;;;;;;;0.75;0.00;;;;;10.72;68.93;99374.16;5055719;28;47888;-78
2022/02/14 04:50:22;;;;;;;;;0.00;0.00;;;;;10.74;68.81;99384.50;5057103;28;46183;-76
2022/02/14 04:52:47;;;;;;;;;0.00;0.00;;;;;10.74;69.59;99382.69;5057653;28;45817;-79
2022/02/14 04:55:13;;;;;;;;;0.00;0.00;;;;;10.72;69.83;99396.91;5058004;28;45852;-78
2022/02/14 04:57:38;;;;;;;;;0.00;0.00;;;;;10.61;69.05;99391.81;5057411;28;46487;-78
2022/02/14 05:00:10;;;;;;;;;0.00;0.00;;;;;10.66;70.08;99394.84;5057319;28;45639;-79
2022/02/14 05:02:35;;;;;;;;;0.00;0.00;;;;;10.53;69.19;99392.50;5057005;28;45528;-78
2022/02/14 05:08:22;;;;;;;;;0.00;0.00;;;;;10.59;68.63;99425.97;5056496;28;45580;-77
2022/02/14 05:10:49;;;;;;;;;0.00;0.00;;;;;10.58;68.48;99436.63;5057001;28;45994;-79
2022/02/14 05:13:14;;;;;;;;;0.00;0.00;;;;;10.46;67.82;99405.34;5039573;28;45595;-78
2022/02/14 05:15:41;;;;;;;;;0.00;0.00;;;;;10.56;68.14;99430.69;5057241;28;45568;-79
2022/02/14 05:18:06;;;;;;;;;0.00;0.00;;;;;10.58;67.84;99440.03;5057274;28;46620;-80
2022/02/14 05:20:32;;;;;;;;;0.00;0.00;;;;;10.51;68.18;99439.78;5039846;28;46929;-78
2022/02/14 05:22:57;;;;;;;;;0.00;0.00;;;;;10.60;67.70;99442.53;5058119;28;46055;-79
2022/02/14 05:25:23;;;;;;;;;0.00;0.00;;;;;10.61;67.62;99454.66;5059524;28;45864;-80
2022/02/14 05:27:48;;;;;;;;;0.00;0.00;;;;;10.62;67.87;99457.16;5057942;28;45642;-79
2022/02/14 05:30:13;;;;;;;;;0.00;0.00;;;;;10.53;67.89;99452.72;5057518;28;46155;-79
2022/02/14 05:32:39;;;;;;;;;0.00;0.00;;;;;10.42;67.84;99437.13;5056868;28;45650;-78
2022/02/14 05:38:26;;;;;;;;;0.00;0.00;;;;;10.57;67.65;99469.84;5056516;28;45675;-79
2022/02/14 05:40:51;;;;;;;;;0.00;0.00;;;;;10.56;68.03;99465.56;5056860;28;46346;-78
2022/02/14 05:43:17;;;;;;;;;0.00;0.00;;;;;10.48;68.01;99468.00;5056050;28;46063;-77
2022/02/14 05:45:43;;;;;;;;;0.00;0.00;;;;;10.53;67.91;99486.75;5057049;28;45699;-79
2022/02/14 05:48:09;;;;;;;;;0.00;0.00;;;;;10.49;67.90;99482.75;5056828;28;46303;-78
2022/02/14 05:50:36;;;;;;;;;0.00;0.00;;;;;10.45;67.85;99476.16;5057136;28;46065;-79
2022/02/14 05:53:02;;;;;;;;;0.00;0.00;;;;;10.47;67.54;99482.09;5056758;28;45748;-79
2022/02/14 05:55:27;;;;;;;;;0.00;0.00;;;;;10.47;67.87;99489.94;5056885;28;45505;-79
2022/02/14 05:57:53;;;;;;;;;0.00;0.00;;;;;10.46;68.00;99494.34;5054558;28;47476;-79
2022/02/14 06:00:19;;;;;;;;;0.00;0.00;;;;;10.47;67.88;99489.94;5037741;28;46952;-78
2022/02/14 06:02:45;;;;;;;;;0.00;0.00;;;;;10.47;68.38;99513.53;5056159;28;45495;-78
2022/02/14 06:08:32;;;;;;;;;0.00;0.00;;;;;10.33;68.47;99506.84;5055908;28;45554;-78
2022/02/14 06:10:57;;;;;;;;;0.00;0.00;;;;;10.36;68.04;99531.97;5056476;28;46280;-79
2022/02/14 06:13:23;;;;;;;;;0.00;0.00;;;;;10.32;68.70;99534.00;5056470;28;45645;-79
2022/02/14 06:15:48;;;;;;;;;0.00;0.00;;;;;10.30;68.19;99543.78;5056710;28;45522;-78
2022/02/14 06:18:15;;;;;;;;;0.00;0.00;;;;;10.26;68.23;99550.22;5056294;28;47427;-79
2022/02/14 06:20:40;;;;;;;;;0.50;0.00;;;;;10.27;67.98;99551.06;5056101;28;47375;-77
2022/02/14 06:23:09;;;;;;;;;0.00;0.00;;;;;10.18;67.76;99557.94;5056027;28;45983;-78
2022/02/14 06:25:37;;;;;;;;;0.00;0.00;;;;;10.25;68.15;99568.72;5055917;28;45878;-78
2022/02/14 06:28:03;;;;;;;;;0.00;0.00;;;;;9.90;68.26;99520.19;5055808;28;46570;-79
2022/02/14 06:30:29;;;;;;;;;0.00;0.00;;;;;10.08;68.08;99560.50;5055732;28;45633;-78
2022/02/14 06:32:54;;;;;;;;;0.00;0.00;;;;;10.18;67.63;99584.09;5056024;28;45596;-78
2022/02/14 06:38:42;;;;;;;;;0.00;0.00;;;;;10.19;67.98;99582.31;5055621;28;46196;-76
2022/02/14 06:41:07;;;;;;;;;0.00;0.00;;;;;10.11;67.49;99580.31;5054596;28;47066;-79
2022/02/14 06:43:32;;;;;;;;;0.00;0.00;;;;;10.15;67.79;99586.13;5056222;28;45583;-78
2022/02/14 06:45:58;;;;;;;;;0.00;0.00;;;;;10.18;67.46;99586.72;5037770;28;45486;-78
2022/02/14 06:48:23;;;;;;;;;0.00;0.00;;;;;10.19;67.42;99598.03;5055468;28;45514;-77
2022/02/14 06:50:50;;;;;;;;;1.50;0.00;;;;;10.21;67.56;99603.94;5055504;28;46267;-79
2022/02/14 06:53:15;;;;;;;;;1.00;1.00;;;;;10.15;67.04;99592.16;5055369;28;45517;-78
2022/02/14 06:55:41;;;;;;;;;1.00;0.00;;;;;10.10;67.01;99591.72;5055599;28;45677;-78
2022/02/14 06:58:06;;;;;;;;;0.25;0.00;;;;;10.28;67.04;99610.31;5056360;28;46639;-76
2022/02/14 07:00:32;;;;;;;;;1.25;0.00;;;;;10.29;67.19;99612.81;5056007;28;46383;-76
2022/02/14 07:03:00;;;;;;;;;1.75;0.00;;;;;10.23;66.90;99602.84;5037222;28;46079;-78
2022/02/14 07:08:48;;;;;;;;;1.00;0.50;;;;;10.22;67.00;99624.75;5053520;28;45656;-77
2022/02/14 07:11:13;;;;;;;;;0.00;0.00;;;;;10.23;66.81;99620.34;5054895;28;46099;-79
2022/02/14 07:13:39;;;;;;;;;0.00;0.00;;;;;10.29;66.93;99635.53;5054994;28;45624;-77
2022/02/14 07:16:05;;;;;;;;;2.00;2.00;;;;;10.28;66.69;99639.09;5055249;28;45702;-79
2022/02/14 07:24:56;;;;;;;;;0.75;0.75;;;;;10.28;66.31;99646.97;5056003;28;45574;-78
2022/02/14 07:27:21;;;;;;;;;0.00;0.00;;;;;10.29;66.24;99643.38;5037678;28;45851;-80
2022/02/14 07:29:46;;;;;;;;;0.00;0.00;;;;;10.29;66.39;99659.09;5071099;28;47144;-78
2022/02/14 07:32:12;;;;;;;;;0.00;0.00;;;;;10.31;66.36;99659.81;5055669;28;46163;-79
2022/02/14 07:34:38;;;;;;;;;1.50;1.50;;;;;10.28;66.07;99660.88;5053713;28;45696;-78
2022/02/14 07:37:04;;;;;;;;;0.25;0.25;;;;;10.32;66.13;99687.63;5055585;28;45683;-77
2022/02/14 07:39:33;;;;;;;;;1.25;1.00;;;;;10.31;65.75;99683.38;5055095;28;45927;-77
2022/02/14 07:41:59;;;;;;;;;1.25;0.00;;;;;10.22;66.07;99664.00;5054641;28;47079;-79
2022/02/14 07:44:26;;;;;;;;;0.00;0.00;;;;;10.27;65.89;99676.72;5053861;28;45740;-77
2022/02/14 07:46:52;;;;;;;;;1.50;0.00;;;;;10.21;65.67;99659.72;5055040;28;45752;-78
2022/02/14 07:49:21;;;;;;;;;0.75;0.00;;;;;10.29;65.76;99680.03;5054804;28;45772;-77
2022/02/14 07:51:47;;;;;;;;;1.00;0.00;;;;;10.24;65.55;99674.38;5054757;28;46148;-77
2022/02/14 07:54:13;;;;;;;;;2.00;0.00;;;;;10.26;65.62;99675.03;5055410;28;45494;-77
2022/02/14 07:56:39;;;;;;;;;1.00;0.00;;;;;10.31;65.53;99683.38;5055285;28;45459;-77
2022/02/14 07:59:07;;;;;;;;;0.75;0.00;;;;;10.37;65.47;99701.16;5055057;28;45538;-77
2022/02/14 08:01:33;;;;;;;;;2.50;0.00;;;;;10.21;65.36;99667.59;5054681;28;45723;-78
2022/02/14 08:03:58;;;;;;;;;1.00;1.00;;;;;10.30;65.29;99681.69;5055196;28;45620;-78
2022/02/14 08:06:24;;;;;;;;;0.00;0.00;;;;;10.32;65.42;99693.69;5055090;28;45559;-78
2022/02/14 08:08:50;;;;;;;;;1.00;0.00;;;;;10.26;64.86;99690.75;5054276;28;46468;-78
2022/02/14 08:11:17;;;;;;;;;0.00;0.00;;;;;10.36;65.23;99704.75;5054598;28;45815;-78
2022/02/14 08:13:43;;;;;;;;;0.00;0.00;;;;;10.38;64.82;99706.25;5054825;28;45690;-79
2022/02/14 08:16:09;;;;;;;;;1.00;0.25;;;;;10.38;64.98;99706.25;5055060;28;45543;-79
2022/02/14 08:18:36;;;;;;;;;0.50;0.00;;;;;10.36;64.96;99712.59;5054530;28;45604;-77
2022/02/14 08:24:23;;;;;;;;;0.50;0.50;;;;;10.37;64.65;99729.94;5058021;28;45542;-75
2022/02/14 08:26:49;;;;;;;;;1.75;1.00;;;;;10.39;64.75;99730.66;5058360;28;45675;-78
2022/02/14 08:29:15;;;;;;;;;0.25;0.25;;;;;10.41;64.73;99736.59;5057972;28;46842;-78
2022/02/14 08:31:41;;;;;;;;;0.50;0.50;;;;;10.41;64.65;99728.75;5058422;28;45593;-78
2022/02/14 08:34:06;;;;;;;;;2.50;0.00;;;;;10.48;64.76;99741.19;5058484;28;45576;-81
2022/02/14 08:39:53;;;;;;;;;1.00;1.00;;;;;10.52;64.45;99737.38;5058409;28;46151;-79
2022/02/14 08:42:19;;;;;;;;;2.00;1.00;;;;;10.57;64.66;99742.22;5058292;28;45728;-80
2022/02/14 08:44:45;;;;;;;;;0.00;0.00;;;;;10.48;64.69;99730.72;5058519;28;45444;-82
2022/02/14 08:47:11;;;;;;;;;1.00;1.00;;;;;10.58;64.54;99729.94;5058056;28;45429;-79
2022/02/14 08:49:37;;;;;;;;;1.00;0.00;;;;;10.66;64.50;99746.66;5058183;28;45481;-80
2022/02/14 08:52:04;;;;;;;;;2.00;1.00;;;;;10.70;64.69;99741.97;5057967;28;46207;-80
2022/02/14 08:54:30;;;;;;;;;1.00;0.50;;;;;10.72;64.51;99745.31;5058186;28;45761;-80
2022/02/14 08:56:56;;;;;;;;;2.00;0.00;;;;;10.73;64.55;99737.31;5057958;28;45635;-83
2022/02/14 08:59:22;;;;;;;;;0.25;0.25;;;;;10.77;64.69;99745.75;5058466;28;45968;-81
2022/02/14 09:01:48;;;;;;;;;0.75;0.00;;;;;10.65;64.71;99716.19;5058621;28;45584;-82
2022/02/14 09:04:14;;;;;;;;;1.00;1.00;;;;;10.78;64.56;99736.94;5058942;28;45581;-81
2022/02/14 09:10:02;;;;;;;;;1.00;0.00;;;;;10.73;64.38;99711.13;5056844;28;45815;-81
2022/02/14 09:12:27;;;;;;;;;0.50;0.00;;;;;10.99;64.10;99744.72;5057398;28;46455;-81
2022/02/14 09:14:52;;;;;;;;;0.25;0.00;;;;;10.80;64.39;99693.06;5057638;28;45486;-80
2022/02/14 09:17:18;;;;;;;;;0.75;0.00;;;;;10.98;63.98;99719.47;5058252;28;45667;-82
2022/02/14 09:19:44;;;;;;;;;1.50;1.00;;;;;11.17;63.80;99730.03;5057675;28;47178;-80
2022/02/14 09:22:09;;;;;;;;;1.75;0.00;;;;;11.21;63.70;99734.84;5057249;28;46097;-79
2022/02/14 09:24:35;;;;;;;;;1.25;1.00;;;;;11.22;63.79;99736.53;5056932;28;45599;-80
2022/02/14 09:27:02;;;;;;;;;0.00;0.00;;;;;11.33;63.64;99751.31;5057031;28;45553;-80
2022/02/14 09:29:27;;;;;;;;;1.00;0.50;;;;;11.32;63.48;99739.16;5056419;28;45710;-82
2022/02/14 09:31:53;;;;;;;;;0.50;0.00;;;;;11.43;63.44;99760.03;5055978;28;45813;-79
2022/02/14 09:34:19;;;;;;;;;0.25;0.00;;;;;11.43;63.04;99749.53;5057030;28;45862;-80
2022/02/14 09:40:07;;;;;;;;;0.25;0.25;;;;;11.55;62.99;99758.13;5056118;28;45439;-79
2022/02/14 09:42:32;;;;;;;;;1.00;1.00;;;;;11.41;63.01;99729.63;5056325;28;46901;-80
2022/02/14 09:44:57;;;;;;;;;2.00;1.00;;;;;11.57;62.92;99759.63;5056574;28;45553;-80
2022/02/14 09:47:25;;;;;;;;;0.25;0.25;;;;;11.43;62.33;99727.72;5037846;28;45964;-81
2022/02/14 09:49:53;;;;;;;;;2.00;1.00;;;;;11.47;62.42;99743.03;5056375;28;46307;-81
2022/02/14 09:52:18;;;;;;;;;0.00;0.00;;;;;11.46;61.96;99737.94;5055534;28;46049;-81
2022/02/14 09:54:44;;;;;;;;;3.00;1.00;;;;;11.61;62.32;99782.00;5056272;28;45478;-81
2022/02/14 09:57:11;;;;;;;;;1.00;0.75;;;;;11.51;62.05;99756.72;5056320;28;45463;-81
2022/02/14 09:59:37;;;;;;;;;2.75;1.00;;;;;11.61;61.85;99789.84;5056290;28;46251;-80
2022/02/14 10:02:26;;;;;;;;;1.00;0.00;;;;;11.58;61.79;99787.53;5038041;28;46198;-81
2022/02/14 10:05:18;;;;;;;;;2.00;1.00;;;;;11.49;61.95;99761.28;5056293;28;45517;-81
2022/02/14 10:07:54;;;;;;;;;1.00;1.00;;;;;11.63;61.77;99790.56;5055864;28;45963;-81
2022/02/14 10:10:21;;;;;;;;;1.75;1.00;;;;;11.60;61.86;99782.16;5055353;28;45645;-81
2022/02/14 10:12:55;;;;;;;;;2.00;1.00;;;;;11.69;61.77;99791.81;5055705;28;45937;-80
2022/02/14 10:15:20;;;;;;;;;1.75;0.50;;;;;11.64;61.64;99773.88;5055740;28;45610;-81
2022/02/14 10:17:48;;;;;;;;;2.25;0.00;;;;;11.78;61.29;99789.22;5055597;28;45750;-80
2022/02/14 10:20:18;;;;;;;;;1.00;0.25;;;;;11.65;60.72;99772.06;5055489;28;46436;-80
2022/02/14 10:23:09;;;;;;;;;1.25;0.00;;;;;11.74;60.55;99803.59;5055732;28;46106;-80
2022/02/14 10:25:43;;;;;;;;;1.00;0.00;;;;;11.68;60.49;99790.16;5050730;28;45536;-82
2022/02/14 10:28:13;;;;;;;;;2.00;0.25;;;;;11.69;60.59;99791.81;5055888;28;45526;-81
2022/02/14 10:31:01;;;;;;;;;1.00;0.00;;;;;11.69;60.78;99810.19;5055875;28;46602;-82
2022/02/14 10:33:50;;;;;;;;;4.50;1.00;;;;;11.68;60.58;99819.84;5037749;28;47513;-80
2022/02/14 10:36:28;;;;;;;;;1.25;0.00;;;;;11.62;60.74;99807.25;5055747;28;45764;-80
2022/02/14 10:38:54;;;;;;;;;2.00;1.00;;;;;11.46;60.69;99783.34;5055753;28;45758;-81
2022/02/14 10:41:20;;;;;;;;;1.00;1.00;;;;;11.52;60.68;99784.59;5055279;28;45735;-81
2022/02/14 10:43:46;;;;;;;;;1.00;0.00;;;;;11.69;60.55;99818.06;5054665;28;45565;-81
2022/02/14 10:46:22;;;;;;;;;0.75;0.00;;;;;11.69;60.35;99816.25;5055453;28;45593;-78
2022/02/14 10:48:53;;;;;;;;;0.75;0.00;;;;;11.45;60.14;99780.84;5055530;28;45663;-81
2022/02/14 10:51:19;;;;;;;;;2.00;1.00;;;;;11.57;59.96;99792.91;5055410;28;45606;-81
2022/02/14 10:53:48;;;;;;;;;1.00;0.00;;;;;11.69;59.91;99811.00;5037005;28;47473;-82
2022/02/14 10:56:39;;;;;;;;;2.50;1.00;;;;;11.61;59.85;99802.16;5045290;27;46085;-82
2022/02/14 10:59:11;;;;;;;;;0.25;0.00;;;;;11.74;59.96;99819.34;5028028;28;45900;-81
2022/02/14 11:01:42;;;;;;;;;1.00;1.00;;;;;11.80;59.88;99811.88;5015639;28;45529;-82
2022/02/14 11:04:08;;;;;;;;;1.00;1.00;;;;;11.70;59.72;99786.44;5028873;28;46629;-81
2022/02/14 11:06:36;;;;;;;;;1.50;0.00;;;;;11.89;59.67;99798.75;5026958;28;45769;-82
2022/02/14 11:09:04;;;;;;;;;1.50;0.00;;;;;11.82;59.17;99775.84;5028563;28;45552;-82
2022/02/14 11:11:35;;;;;;;;;1.50;1.00;;;;;12.00;58.89;99795.19;5027980;28;45794;-80
2022/02/14 11:14:02;;;;;;;;;2.00;0.50;;;;;12.12;58.90;99799.31;5028449;28;46666;-79
2022/02/14 11:16:32;;;;;;;;;1.00;0.00;;;;;12.19;58.21;99796.03;5029780;28;47472;-80
2022/02/14 11:19:01;;;;;;;;;1.00;1.00;;;;;12.17;58.64;99774.31;5027889;28;45888;-81
2022/02/14 11:21:31;;;;;;;;;0.50;0.25;;;;;12.35;58.58;99795.44;5031073;28;45786;-79
2022/02/14 11:24:03;;;;;;;;;0.00;0.00;;;;;12.13;58.19;99744.06;5011032;28;46748;-79
2022/02/14 11:26:55;;;;;;;;;0.00;0.00;;;;;12.50;57.98;99799.28;5026749;28;47076;-79
2022/02/14 11:29:34;;;;;;;;;0.00;0.00;;;;;12.53;57.75;99804.25;5015950;28;46057;-81
2022/02/14 11:32:25;;;;;;;;;1.00;1.00;;;;;12.56;57.56;99792.66;5028466;28;45651;-83
2022/02/14 11:35:07;;;;;;;;;1.00;0.75;;;;;12.58;57.79;99790.69;5026375;28;48707;-80
2022/02/14 11:37:53;;;;;;;;;1.00;0.00;;;;;12.66;57.59;99790.00;5028593;28;46212;-80
2022/02/14 11:40:42;;;;;;;;;0.75;0.50;;;;;12.56;57.49;99767.19;5026820;28;46074;-79
2022/02/14 11:43:24;;;;;;;;;3.00;3.00;;;;;12.61;57.46;99751.00;5023366;28;45753;-81
2022/02/14 11:46:26;;;;;;;;;0.00;0.00;;;;;12.86;57.27;99765.28;5027336;28;46023;-78
2022/02/14 11:49:12;;;;;;;;;1.00;0.00;;;;;12.86;56.70;99752.97;4975506;28;46121;-80
2022/02/14 11:51:41;;;;;;;;;1.00;1.00;;;;;13.01;56.69;99762.03;4986095;28;46139;-79
2022/02/14 11:54:29;;;;;;;;;1.25;1.25;;;;;13.08;56.42;99762.28;4986747;28;45899;-83
2022/02/14 11:57:15;;;;;;;;;2.00;0.75;;;;;13.15;55.96;99755.53;4963298;28;45849;-83
2022/02/14 11:59:41;;;;;;;;;1.00;0.25;;;;;13.18;55.61;99759.63;4986708;28;45888;-81
2022/02/14 12:02:07;;;;;;;;;1.00;0.00;;;;;12.98;55.79;99735.22;4987203;28;45760;-82
2022/02/14 12:04:32;;;;;;;;;0.50;0.25;;;;;13.16;55.54;99758.97;4986312;28;45895;-82
2022/02/14 12:07:22;;;;;;;;;2.00;1.25;;;;;13.18;55.27;99757.84;4978471;28;46871;-82
2022/02/14 12:09:57;;;;;;;;;1.25;1.00;;;;;13.25;55.55;99758.09;4973387;28;47188;-81
2022/02/14 12:12:56;;;;;;;;;2.75;1.00;;;;;13.34;55.39;99746.69;4973708;28;45812;-79
2022/02/14 12:20:51;;;;;;;;;0.00;0.00;;;;;13.47;54.77;99751.59;4973426;28;45712;-80
2022/02/14 12:23:31;;;;;;;;;1.50;1.00;;;;;13.39;54.72;99760.22;5007632;28;45797;-80
2022/02/14 12:25:57;;;;;;;;;0.50;0.50;;;;;13.29;55.00;99746.28;5014007;28;45135;-80
2022/02/14 12:28:25;;;;;;;;;0.75;0.75;;;;;13.33;54.95;99760.84;5026200;28;45527;-80
2022/02/14 12:30:52;;;;;;;;;0.50;0.00;;;;;13.31;55.16;99766.22;5027789;28;45657;-79
2022/02/14 12:33:19;;;;;;;;;0.75;0.00;;;;;13.31;55.35;99757.50;5022772;28;45593;-82
2022/02/14 12:35:50;;;;;;;;;0.00;0.00;;;;;13.23;54.95;99744.25;5018483;28;45980;-80
2022/02/14 12:38:15;;;;;;;;;1.00;0.25;;;;;13.36;55.21;99757.88;5019272;28;45759;-81
2022/02/14 12:40:53;;;;;;;;;0.75;0.00;;;;;13.39;54.84;99761.03;5021449;28;46186;-81
2022/02/14 12:43:22;;;;;;;;;3.00;1.00;;;;;13.40;54.68;99761.88;5015278;28;45741;-83
2022/02/14 12:45:49;;;;;;;;;1.25;0.00;;;;;13.20;54.84;99726.97;5018715;28;45491;-85
2022/02/14 12:48:38;;;;;;;;;0.25;0.00;;;;;13.41;54.29;99761.75;5002731;28;46713;-82
2022/02/14 12:51:25;;;;;;;;;0.00;0.00;;;;;13.43;54.18;99756.34;5009247;28;48448;-83
2022/02/14 12:53:53;;;;;;;;;0.00;0.00;;;;;13.42;53.56;99754.69;5015809;28;46053;-78
2022/02/14 12:56:20;;;;;;;;;1.50;0.00;;;;;13.36;53.76;99745.56;5009053;28;45624;-81